sensor_id;sensor_type;location;lat;lon;timestamp;pressure;altitude;pressure_sealevel;temperature;humidity
59315;BME280;46521;50.160;20.802;2022-11-04T00:05:16;99345.52;;;8.56;67.03
59315;BME280;46521;50.160;20.802;2022-11-04T00:15:17;99345.67;;;8.46;66.91
59315;BME280;46521;50.160;20.802;2022-11-04T00:25:38;99334.90;;;8.40;67.50
59315;BME280;46521;50.160;20.802;2022-11-04T00:35:58;99306.75;;;8.40;67.12
59315;BME280;46521;50.160;20.802;2022-11-04T00:45:59;99298.01;;;8.40;66.99
59315;BME280;46521;50.160;20.802;2022-11-04T00:56:01;99285.38;;;8.43;67.69
59315;BME280;46521;50.160;20.802;2022-11-04T01:06:02;99284.05;;;8.47;67.26
59315;BME280;46521;50.160;20.802;2022-11-04T01:16:07;99258.86;;;8.45;67.88
59315;BME280;46521;50.160;20.802;2022-11-04T01:26:12;99267.75;;;8.44;67.64
59315;BME280;46521;50.160;20.802;2022-11-04T01:36:15;99240.03;;;8.40;67.51
59315;BME280;46521;50.160;20.802;2022-11-04T01:46:38;99224.44;;;8.46;68.17
59315;BME280;46521;50.160;20.802;2022-11-04T01:56:44;99203.19;;;8.48;68.13
59315;BME280;46521;50.160;20.802;2022-11-04T02:06:47;99186.70;;;8.46;68.50
59315;BME280;46521;50.160;20.802;2022-11-04T02:16:54;99188.18;;;8.57;68.03
59315;BME280;46521;50.160;20.802;2022-11-04T02:47:37;99155.19;;;8.86;68.47
59315;BME280;46521;50.160;20.802;2022-11-04T02:57:41;99164.05;;;8.93;68.63
59315;BME280;46521;50.160;20.802;2022-11-04T03:07:46;99152.02;;;8.98;68.98
59315;BME280;46521;50.160;20.802;2022-11-04T03:18:11;99147.59;;;8.91;68.62
59315;BME280;46521;50.160;20.802;2022-11-04T03:28:23;99136.56;;;8.79;69.10
59315;BME280;46521;50.160;20.802;2022-11-04T03:38:27;99129.50;;;8.79;68.86
59315;BME280;46521;50.160;20.802;2022-11-04T03:48:29;99116.66;;;8.76;68.77
59315;BME280;46521;50.160;20.802;2022-11-04T04:09:22;99104.55;;;8.90;69.00
59315;BME280;46521;50.160;20.802;2022-11-04T04:19:25;99085.73;;;9.01;68.55
59315;BME280;46521;50.160;20.802;2022-11-04T04:29:28;99086.50;;;9.10;68.90
59315;BME280;46521;50.160;20.802;2022-11-04T04:39:40;99075.58;;;9.22;68.50
59315;BME280;46521;50.160;20.802;2022-11-04T04:50:01;99056.22;;;9.29;68.35
59315;BME280;46521;50.160;20.802;2022-11-04T05:00:05;99045.80;;;9.36;68.44
59315;BME280;46521;50.160;20.802;2022-11-04T05:10:09;99026.31;;;9.37;68.28
59315;BME280;46521;50.160;20.802;2022-11-04T05:20:11;99031.41;;;9.38;68.55
59315;BME280;46521;50.160;20.802;2022-11-04T05:30:13;99026.63;;;9.42;68.30
59315;BME280;46521;50.160;20.802;2022-11-04T05:40:15;99035.19;;;9.44;68.62
59315;BME280;46521;50.160;20.802;2022-11-04T05:50:16;99003.44;;;9.52;68.23
59315;BME280;46521;50.160;20.802;2022-11-04T06:00:18;99006.50;;;9.64;68.41
59315;BME280;46521;50.160;20.802;2022-11-04T06:10:20;99000.70;;;9.84;68.17
59315;BME280;46521;50.160;20.802;2022-11-04T06:20:22;99008.09;;;9.88;68.12
59315;BME280;46521;50.160;20.802;2022-11-04T06:30:23;99013.28;;;9.97;68.01
59315;BME280;46521;50.160;20.802;2022-11-04T06:40:25;99020.55;;;10.33;67.95
59315;BME280;46521;50.160;20.802;2022-11-04T06:50:26;99019.66;;;10.55;67.71
59315;BME280;46521;50.160;20.802;2022-11-04T07:00:28;99008.34;;;10.61;67.72
59315;BME280;46521;50.160;20.802;2022-11-04T07:10:29;99008.78;;;10.65;67.89
59315;BME280;46521;50.160;20.802;2022-11-04T07:20:32;98997.91;;;10.75;67.48
59315;BME280;46521;50.160;20.802;2022-11-04T07:30:34;98991.52;;;10.84;67.57
59315;BME280;46521;50.160;20.802;2022-11-04T07:40:35;98988.75;;;10.92;67.37
59315;BME280;46521;50.160;20.802;2022-11-04T07:50:38;98974.36;;;11.16;67.38
59315;BME280;46521;50.160;20.802;2022-11-04T08:00:40;98959.66;;;11.57;67.25
59315;BME280;46521;50.160;20.802;2022-11-04T08:10:41;98950.64;;;11.80;66.36
59315;BME280;46521;50.160;20.802;2022-11-04T08:20:50;98943.83;;;11.92;66.40
59315;BME280;46521;50.160;20.802;2022-11-04T08:30:53;98925.80;;;12.09;66.19
59315;BME280;46521;50.160;20.802;2022-11-04T08:41:00;98922.98;;;12.72;66.54
59315;BME280;46521;50.160;20.802;2022-11-04T08:51:05;98907.18;;;13.59;64.58
59315;BME280;46521;50.160;20.802;2022-11-04T09:01:08;98896.23;;;14.14;64.01
59315;BME280;46521;50.160;20.802;2022-11-04T09:11:12;98877.13;;;14.76;62.80
59315;BME280;46521;50.160;20.802;2022-11-04T09:21:14;98883.80;;;15.17;62.33
59315;BME280;46521;50.160;20.802;2022-11-04T09:31:17;98870.00;;;15.52;61.47
59315;BME280;46521;50.160;20.802;2022-11-04T09:41:55;98860.05;;;15.84;60.37
59315;BME280;46521;50.160;20.802;2022-11-04T09:52:06;98844.17;;;16.27;59.78
59315;BME280;46521;50.160;20.802;2022-11-04T10:23:20;98802.84;;;16.48;57.64
59315;BME280;46521;50.160;20.802;2022-11-04T10:33:43;98790.02;;;16.68;57.75
59315;BME280;46521;50.160;20.802;2022-11-04T10:43:46;98795.31;;;16.87;57.13
59315;BME280;46521;50.160;20.802;2022-11-04T10:53:57;98789.52;;;16.90;56.39
59315;BME280;46521;50.160;20.802;2022-11-04T11:04:00;98765.47;;;17.02;56.69
59315;BME280;46521;50.160;20.802;2022-11-04T11:24:27;98754.50;;;16.80;56.05
59315;BME280;46521;50.160;20.802;2022-11-04T11:34:36;98745.09;;;16.65;55.23
59315;BME280;46521;50.160;20.802;2022-11-04T11:44:46;98738.67;;;16.43;56.35
59315;BME280;46521;50.160;20.802;2022-11-04T11:54:52;98728.14;;;16.17;55.97
59315;BME280;46521;50.160;20.802;2022-11-04T12:04:54;98730.37;;;15.90;56.08
59315;BME280;46521;50.160;20.802;2022-11-04T12:15:41;98713.92;;;15.75;56.38
59315;BME280;46521;50.160;20.802;2022-11-04T12:36:32;98707.81;;;15.37;56.18
59315;BME280;46521;50.160;20.802;2022-11-04T12:46:56;98700.78;;;15.24;56.24
59315;BME280;46521;50.160;20.802;2022-11-04T12:57:12;98695.44;;;15.06;56.68
59315;BME280;46521;50.160;20.802;2022-11-04T13:07:17;98687.42;;;14.87;57.05
59315;BME280;46521;50.160;20.802;2022-11-04T13:17:25;98695.98;;;14.71;57.15
59315;BME280;46521;50.160;20.802;2022-11-04T13:27:35;98693.39;;;14.57;57.29
59315;BME280;46521;50.160;20.802;2022-11-04T13:37:54;98695.31;;;14.50;57.56
59315;BME280;46521;50.160;20.802;2022-11-04T13:47:58;98694.23;;;14.33;57.76
59315;BME280;46521;50.160;20.802;2022-11-04T13:58:04;98701.80;;;14.29;57.80
59315;BME280;46521;50.160;20.802;2022-11-04T14:08:16;98717.86;;;14.16;58.05
59315;BME280;46521;50.160;20.802;2022-11-04T14:18:33;98721.63;;;14.01;58.16
59315;BME280;46521;50.160;20.802;2022-11-04T14:28:35;98725.15;;;13.88;58.41
59315;BME280;46521;50.160;20.802;2022-11-04T14:38:37;98745.27;;;13.71;58.67
59315;BME280;46521;50.160;20.802;2022-11-04T14:48:42;98739.81;;;13.52;58.78
59315;BME280;46521;50.160;20.802;2022-11-04T14:59:03;98728.41;;;13.32;58.94
59315;BME280;46521;50.160;20.802;2022-11-04T15:09:19;98709.69;;;13.13;59.32
59315;BME280;46521;50.160;20.802;2022-11-04T15:19:29;98692.54;;;12.96;59.80
59315;BME280;46521;50.160;20.802;2022-11-04T15:29:30;98715.43;;;12.77;59.69
59315;BME280;46521;50.160;20.802;2022-11-04T15:39:39;98714.42;;;12.58;59.22
59315;BME280;46521;50.160;20.802;2022-11-04T15:49:44;98717.28;;;12.50;60.18
59315;BME280;46521;50.160;20.802;2022-11-04T16:09:53;98726.86;;;12.31;59.94
59315;BME280;46521;50.160;20.802;2022-11-04T16:20:00;98706.85;;;12.15;60.31
59315;BME280;46521;50.160;20.802;2022-11-04T16:40:14;98713.27;;;11.85;60.62
59315;BME280;46521;50.160;20.802;2022-11-04T16:50:16;98712.01;;;11.75;61.13
59315;BME280;46521;50.160;20.802;2022-11-04T17:00:20;98686.31;;;11.68;60.32
59315;BME280;46521;50.160;20.802;2022-11-04T17:10:25;98696.89;;;11.62;60.60
59315;BME280;46521;50.160;20.802;2022-11-04T17:20:27;98696.43;;;11.51;61.19
59315;BME280;46521;50.160;20.802;2022-11-04T17:30:30;98691.91;;;11.39;61.16
59315;BME280;46521;50.160;20.802;2022-11-04T17:40:31;98682.09;;;11.32;61.62
59315;BME280;46521;50.160;20.802;2022-11-04T17:50:53;98692.86;;;11.24;61.56
59315;BME280;46521;50.160;20.802;2022-11-04T18:00:55;98697.93;;;11.19;61.55
59315;BME280;46521;50.160;20.802;2022-11-04T18:11:08;98690.60;;;11.21;62.03
59315;BME280;46521;50.160;20.802;2022-11-04T18:21:09;98692.47;;;11.27;62.12
59315;BME280;46521;50.160;20.802;2022-11-04T18:31:23;98694.72;;;11.30;62.40
59315;BME280;46521;50.160;20.802;2022-11-04T18:41:25;98697.13;;;11.25;62.31
59315;BME280;46521;50.160;20.802;2022-11-04T18:51:27;98666.59;;;11.23;61.97
59315;BME280;46521;50.160;20.802;2022-11-04T19:01:33;98660.44;;;11.15;61.70
59315;BME280;46521;50.160;20.802;2022-11-04T19:11:35;98667.77;;;11.13;61.68
59315;BME280;46521;50.160;20.802;2022-11-04T19:21:37;98679.59;;;11.17;62.27
59315;BME280;46521;50.160;20.802;2022-11-04T19:31:39;98696.90;;;11.20;62.12
59315;BME280;46521;50.160;20.802;2022-11-04T19:41:40;98702.77;;;11.15;62.37
59315;BME280;46521;50.160;20.802;2022-11-04T19:52:00;98709.69;;;11.10;62.44
59315;BME280;46521;50.160;20.802;2022-11-04T20:02:02;98726.36;;;11.10;63.09
59315;BME280;46521;50.160;20.802;2022-11-04T20:12:04;98725.17;;;11.13;62.81
59315;BME280;46521;50.160;20.802;2022-11-04T20:22:24;98726.81;;;11.21;63.32
59315;BME280;46521;50.160;20.802;2022-11-04T20:32:26;98727.69;;;11.28;62.93
59315;BME280;46521;50.160;20.802;2022-11-04T20:42:27;98733.39;;;11.31;63.43
59315;BME280;46521;50.160;20.802;2022-11-04T20:52:29;98737.69;;;11.32;62.42
59315;BME280;46521;50.160;20.802;2022-11-04T21:02:31;98736.43;;;11.28;63.38
59315;BME280;46521;50.160;20.802;2022-11-04T21:12:32;98742.70;;;11.21;63.55
59315;BME280;46521;50.160;20.802;2022-11-04T21:22:33;98731.47;;;11.12;63.43
59315;BME280;46521;50.160;20.802;2022-11-04T21:32:35;98727.17;;;11.11;64.16
59315;BME280;46521;50.160;20.802;2022-11-04T21:42:36;98724.39;;;11.19;63.96
59315;BME280;46521;50.160;20.802;2022-11-04T21:52:38;98724.81;;;11.23;64.55
59315;BME280;46521;50.160;20.802;2022-11-04T22:02:40;98733.78;;;11.28;64.39
59315;BME280;46521;50.160;20.802;2022-11-04T22:12:47;98730.91;;;11.23;64.94
59315;BME280;46521;50.160;20.802;2022-11-04T22:22:48;98736.56;;;11.13;65.40
59315;BME280;46521;50.160;20.802;2022-11-04T22:32:51;98752.02;;;11.10;65.63
59315;BME280;46521;50.160;20.802;2022-11-04T22:42:52;98745.95;;;11.16;65.61
59315;BME280;46521;50.160;20.802;2022-11-04T22:52:54;98735.37;;;11.16;66.06
59315;BME280;46521;50.160;20.802;2022-11-04T23:02:56;98728.59;;;11.07;66.62
59315;BME280;46521;50.160;20.802;2022-11-04T23:12:57;98750.77;;;11.06;66.72
59315;BME280;46521;50.160;20.802;2022-11-04T23:23:17;98763.76;;;11.00;66.78
59315;BME280;46521;50.160;20.802;2022-11-04T23:33:37;98747.20;;;10.92;67.54
